createdAt,value
2023-04-28T00:00:11.910Z,95.60
2023-04-28T00:02:40.273Z,95.60
2023-04-28T00:05:09.507Z,95.60
2023-04-28T00:07:37.995Z,95.60
2023-04-28T00:10:07.307Z,95.60
2023-04-28T00:12:37.128Z,95.60
2023-04-28T00:15:06.052Z,95.90
2023-04-28T00:17:34.537Z,95.60
2023-04-28T00:20:03.228Z,95.60
2023-04-28T00:22:31.739Z,95.60
2023-04-28T00:25:00.191Z,95.60
2023-04-28T00:27:28.494Z,95.60
2023-04-28T00:29:58.154Z,95.60
2023-04-28T00:32:26.547Z,95.60
2023-04-28T00:34:54.922Z,95.70
2023-04-28T00:37:23.172Z,95.70
2023-04-28T00:39:56.304Z,95.60
2023-04-28T00:42:24.835Z,95.60
2023-04-28T00:44:53.084Z,95.60
2023-04-28T00:47:23.944Z,95.60
2023-04-28T00:49:54.058Z,95.60
2023-04-28T00:52:22.314Z,96.10
2023-04-28T00:54:51.098Z,95.70
2023-04-28T00:57:19.411Z,95.70
2023-04-28T00:59:47.628Z,95.70
2023-04-28T01:02:18.459Z,95.70
2023-04-28T01:04:49.125Z,95.70
2023-04-28T01:07:17.632Z,95.60
2023-04-28T01:09:47.866Z,95.70
2023-04-28T01:12:19.416Z,95.70
2023-04-28T01:14:51.531Z,95.70
2023-04-28T01:17:20.244Z,95.70
2023-04-28T01:19:50.545Z,95.70
2023-04-28T01:22:18.896Z,95.60
2023-04-28T01:24:49.417Z,95.70
2023-04-28T01:27:17.719Z,95.80
2023-04-28T01:29:45.990Z,95.80
2023-04-28T01:32:14.410Z,95.80
2023-04-28T01:34:42.735Z,95.80
2023-04-28T01:37:11.074Z,95.70
2023-04-28T01:39:39.341Z,95.80
2023-04-28T01:42:09.286Z,95.90
2023-04-28T01:44:37.553Z,95.90
2023-04-28T01:47:06.150Z,95.90
2023-04-28T01:49:36.542Z,95.90
2023-04-28T01:52:05.046Z,95.80
2023-04-28T01:54:33.409Z,95.90
2023-04-28T01:57:02.354Z,95.90
2023-04-28T01:59:32.024Z,95.80
2023-04-28T02:02:00.459Z,95.90
2023-04-28T02:04:29.062Z,95.80
2023-04-28T02:06:57.308Z,95.90
2023-04-28T02:09:25.654Z,95.80
2023-04-28T02:11:53.942Z,95.80
2023-04-28T02:14:23.685Z,95.70
2023-04-28T02:16:53.374Z,95.60
2023-04-28T02:19:21.812Z,95.80
2023-04-28T02:21:50.047Z,95.70
2023-04-28T02:24:18.462Z,95.80
2023-04-28T02:26:46.966Z,95.80
2023-04-28T02:29:15.536Z,95.70
2023-04-28T02:31:43.940Z,95.70
2023-04-28T02:34:15.890Z,95.70
2023-04-28T02:36:44.338Z,95.80
2023-04-28T02:39:12.878Z,95.80
2023-04-28T02:41:41.202Z,95.70
2023-04-28T02:44:09.459Z,95.60
2023-04-28T02:46:37.790Z,95.60
2023-04-28T02:49:05.980Z,95.50
2023-04-28T02:51:35.611Z,95.50
2023-04-28T02:54:03.870Z,95.50
2023-04-28T02:56:33.100Z,95.50
2023-04-28T02:59:02.160Z,95.60
2023-04-28T03:01:30.504Z,95.60
2023-04-28T03:03:58.996Z,95.60
2023-04-28T03:06:28.353Z,95.50
2023-04-28T03:08:58.021Z,95.60
2023-04-28T03:11:26.358Z,95.60
2023-04-28T03:13:54.681Z,95.60
2023-04-28T03:16:23.114Z,95.60
2023-04-28T03:18:51.442Z,95.60
2023-04-28T03:21:20.950Z,95.50
2023-04-28T03:23:49.186Z,95.70
2023-04-28T03:26:18.748Z,95.60
2023-04-28T03:28:47.467Z,95.40
2023-04-28T03:31:15.937Z,95.40
2023-04-28T03:33:45.576Z,95.40
2023-04-28T03:36:14.096Z,95.80
2023-04-28T03:38:42.459Z,95.40
2023-04-28T03:41:10.689Z,95.40
2023-04-28T03:44:00.294Z,95.40
2023-04-28T03:46:35.421Z,95.40
2023-04-28T03:49:04.251Z,95.40
2023-04-28T03:51:34.408Z,95.40
2023-04-28T03:54:02.937Z,95.30
2023-04-28T03:56:31.295Z,95.30
2023-04-28T03:59:03.261Z,95.50
2023-04-28T04:01:31.501Z,95.40
2023-04-28T04:03:59.920Z,95.40
2023-04-28T04:06:28.509Z,95.40
2023-04-28T04:08:56.809Z,95.30
2023-04-28T04:11:25.074Z,95.30
2023-04-28T04:13:53.399Z,95.30
2023-04-28T04:16:24.895Z,95.40
2023-04-28T04:18:55.502Z,95.40
2023-04-28T04:21:33.123Z,95.40
2023-04-28T04:24:01.405Z,95.40
2023-04-28T04:26:30.329Z,95.40
2023-04-28T04:28:59.013Z,95.80
2023-04-28T04:31:28.616Z,95.40
2023-04-28T04:33:56.911Z,95.30
2023-04-28T04:36:25.382Z,95.30
2023-04-28T04:38:54.707Z,95.30
2023-04-28T04:41:24.298Z,95.70
2023-04-28T04:44:00.706Z,95.40
2023-04-28T04:46:38.385Z,95.40
2023-04-28T04:49:06.618Z,95.30
2023-04-28T04:51:35.090Z,95.30
2023-04-28T04:54:03.398Z,95.30
2023-04-28T04:56:32.138Z,95.30
2023-04-28T04:59:01.011Z,95.30
2023-04-28T05:01:46.244Z,95.20
2023-04-28T05:04:14.817Z,95.20
2023-04-28T05:06:43.284Z,95.60
2023-04-28T05:09:12.365Z,95.60
2023-04-28T05:11:40.773Z,95.10
2023-04-28T05:14:09.426Z,95.10
2023-04-28T05:16:38.176Z,95.30
2023-04-28T05:19:27.075Z,95.30
2023-04-28T05:21:56.233Z,95.30
2023-04-28T05:24:25.202Z,95.30
2023-04-28T05:26:54.206Z,95.30
2023-04-28T05:29:22.821Z,95.30
2023-04-28T05:31:51.214Z,95.30
2023-04-28T05:34:21.668Z,95.40
2023-04-28T05:36:51.388Z,95.30
2023-04-28T05:39:21.148Z,95.20
2023-04-28T05:41:49.380Z,95.20
2023-04-28T05:44:17.860Z,95.30
2023-04-28T05:46:47.706Z,95.30
2023-04-28T05:49:16.018Z,95.30
2023-04-28T05:51:45.071Z,95.30
2023-04-28T05:54:14.991Z,95.30
2023-04-28T05:56:47.428Z,95.30
2023-04-28T05:59:16.791Z,95.30
2023-04-28T06:01:45.254Z,95.40
2023-04-28T06:04:13.866Z,95.40
2023-04-28T06:06:42.686Z,95.40
2023-04-28T06:09:11.202Z,95.40
2023-04-28T06:11:40.873Z,95.40
2023-04-28T06:14:12.017Z,95.50
2023-04-28T06:16:40.400Z,95.40
2023-04-28T06:19:08.759Z,95.40
2023-04-28T06:21:37.170Z,95.50
2023-04-28T06:24:05.769Z,95.40
2023-04-28T06:26:34.304Z,95.40
2023-04-28T06:29:04.414Z,95.40
2023-04-28T06:31:32.730Z,95.40
2023-04-28T06:34:01.169Z,95.40
2023-04-28T06:36:29.766Z,95.50
2023-04-28T06:38:58.932Z,95.50
2023-04-28T06:41:29.131Z,95.50
2023-04-28T06:43:58.129Z,95.40
2023-04-28T06:46:30.537Z,95.40
2023-04-28T06:48:59.424Z,95.40
2023-04-28T06:51:28.860Z,95.40
2023-04-28T06:53:57.419Z,95.50
2023-04-28T06:56:25.871Z,95.40
2023-04-28T06:58:56.207Z,95.40
2023-04-28T07:01:24.707Z,95.40
2023-04-28T07:03:54.651Z,95.30
2023-04-28T07:06:23.134Z,95.40
2023-04-28T07:08:51.785Z,95.40
2023-04-28T07:11:20.155Z,95.40
2023-04-28T07:13:50.520Z,95.40
2023-04-28T07:16:19.137Z,95.40
2023-04-28T07:18:47.575Z,95.40
2023-04-28T07:21:17.638Z,95.40
2023-04-28T07:23:46.057Z,95.40
2023-04-28T07:26:16.397Z,95.40
2023-04-28T07:28:45.506Z,95.40
2023-04-28T07:31:13.815Z,95.40
2023-04-28T07:33:42.149Z,95.50
2023-04-28T07:36:10.736Z,95.50
2023-04-28T07:38:40.752Z,95.40
2023-04-28T07:41:11.105Z,95.40
2023-04-28T07:43:42.262Z,95.70
2023-04-28T07:46:10.792Z,95.40
2023-04-28T07:48:39.173Z,95.40
2023-04-28T07:51:07.458Z,95.40
2023-04-28T07:53:35.982Z,95.50
2023-04-28T07:56:06.003Z,95.40
2023-04-28T07:58:34.302Z,95.50
2023-04-28T08:01:02.489Z,95.50
2023-04-28T08:03:31.005Z,95.40
2023-04-28T08:06:00.030Z,95.50
2023-04-28T08:08:28.436Z,95.60
2023-04-28T08:10:57.319Z,95.60
2023-04-28T08:13:28.561Z,95.60
2023-04-28T08:15:57.125Z,95.60
2023-04-28T08:18:26.323Z,95.50
2023-04-28T08:20:54.792Z,95.60
2023-04-28T08:23:23.055Z,95.60
2023-04-28T08:25:51.794Z,95.60
2023-04-28T08:28:20.079Z,95.60
2023-04-28T08:30:49.821Z,95.60
2023-04-28T08:33:18.356Z,95.70
2023-04-28T08:35:46.746Z,95.60
2023-04-28T08:38:17.606Z,95.60
2023-04-28T08:40:46.218Z,95.60
2023-04-28T08:43:15.147Z,95.60
2023-04-28T08:45:45.660Z,95.60
2023-04-28T08:48:21.126Z,95.60
2023-04-28T08:50:52.827Z,95.60
2023-04-28T08:53:26.383Z,95.60
2023-04-28T08:55:57.570Z,95.60
2023-04-28T08:58:26.577Z,95.60
2023-04-28T09:00:55.533Z,95.60
2023-04-28T09:03:25.246Z,95.60
2023-04-28T09:05:53.648Z,96.00
2023-04-28T09:08:21.906Z,95.60
2023-04-28T09:11:06.303Z,95.60
2023-04-28T09:13:34.804Z,95.60
2023-04-28T09:16:04.180Z,95.60
2023-04-28T09:18:34.057Z,95.60
2023-04-28T09:21:06.950Z,95.60
2023-04-28T09:23:36.116Z,95.50
2023-04-28T09:26:06.454Z,95.60
2023-04-28T09:28:36.408Z,95.70
2023-04-28T09:31:05.061Z,95.60
2023-04-28T09:33:34.818Z,95.50
2023-04-28T09:36:03.389Z,95.60
2023-04-28T09:38:31.676Z,95.60
2023-04-28T09:41:01.334Z,95.60
2023-04-28T09:43:31.817Z,95.60
2023-04-28T09:46:02.143Z,95.50
2023-04-28T09:48:33.027Z,95.40
2023-04-28T09:51:04.228Z,95.30
2023-04-28T09:53:33.125Z,95.30
2023-04-28T09:56:03.763Z,95.20
2023-04-28T09:58:33.055Z,95.30
2023-04-28T10:01:02.267Z,95.30
2023-04-28T10:03:32.240Z,95.20
2023-04-28T10:06:03.053Z,95.20
2023-04-28T10:08:31.379Z,95.20
2023-04-28T10:11:00.169Z,95.60
2023-04-28T10:13:29.504Z,95.20
2023-04-28T10:15:58.613Z,95.10
2023-04-28T10:18:27.868Z,95.10
2023-04-28T10:21:01.088Z,95.10
2023-04-28T10:23:55.869Z,95.00
2023-04-28T10:26:34.819Z,95.10
2023-04-28T10:29:03.200Z,94.90
2023-04-28T10:31:31.541Z,95.00
2023-04-28T10:34:23.034Z,95.00
2023-04-28T10:36:53.030Z,95.00
2023-04-28T10:39:22.905Z,95.00
2023-04-28T10:41:51.202Z,94.90
2023-04-28T10:44:43.848Z,95.00
2023-04-28T10:47:12.716Z,95.00
2023-04-28T10:50:06.953Z,95.00
2023-04-28T10:52:50.800Z,95.00
2023-04-28T10:55:37.349Z,95.00
2023-04-28T10:58:37.667Z,95.00
2023-04-28T11:01:34.922Z,95.00
2023-04-28T11:04:11.437Z,94.90
2023-04-28T11:06:41.693Z,95.00
2023-04-28T11:09:43.435Z,95.00
2023-04-28T11:12:13.581Z,95.00
2023-04-28T11:14:41.925Z,94.90
2023-04-28T11:17:13.370Z,94.90
2023-04-28T11:19:43.373Z,94.90
2023-04-28T11:22:16.449Z,95.00
2023-04-28T11:24:57.649Z,95.10
2023-04-28T11:27:27.957Z,95.10
2023-04-28T11:29:56.783Z,95.00
2023-04-28T11:32:29.541Z,95.10
2023-04-28T11:34:58.094Z,95.10
2023-04-28T11:37:27.348Z,95.10
2023-04-28T11:39:55.759Z,95.20
2023-04-28T11:42:25.973Z,95.10
2023-04-28T11:44:56.463Z,95.20
2023-04-28T11:47:32.534Z,95.20
2023-04-28T11:50:02.164Z,95.20
2023-04-28T11:52:30.580Z,95.30
2023-04-28T11:55:01.032Z,95.20
2023-04-28T11:57:29.715Z,95.30
2023-04-28T12:00:19.152Z,95.30
2023-04-28T12:02:47.974Z,95.30
2023-04-28T12:05:16.543Z,95.30
2023-04-28T12:07:45.950Z,95.30
2023-04-28T12:10:16.894Z,95.30
2023-04-28T12:12:51.807Z,95.40
2023-04-28T12:15:23.553Z,95.40
2023-04-28T12:17:52.195Z,95.50
2023-04-28T12:20:38.063Z,95.50
2023-04-28T12:23:07.789Z,95.50
2023-04-28T12:25:45.659Z,95.50
2023-04-28T12:28:14.022Z,95.90
2023-04-28T12:30:43.902Z,95.40
2023-04-28T12:33:24.936Z,95.50
2023-04-28T12:35:54.845Z,95.50
2023-04-28T12:38:23.220Z,95.50
2023-04-28T12:40:51.468Z,95.50
2023-04-28T12:43:21.100Z,95.60
2023-04-28T12:45:50.762Z,95.60
2023-04-28T12:48:19.225Z,95.70
2023-04-28T12:50:47.552Z,95.70
2023-04-28T12:53:15.813Z,95.60
2023-04-28T12:55:44.150Z,95.60
2023-04-28T12:58:12.354Z,95.50
2023-04-28T13:00:41.897Z,95.60
2023-04-28T13:03:11.704Z,95.50
2023-04-28T13:05:40.397Z,95.60
2023-04-28T13:08:08.616Z,95.70
2023-04-28T13:10:37.009Z,96.00
2023-04-28T13:13:05.534Z,95.60
2023-04-28T13:15:33.825Z,95.50
2023-04-28T13:18:02.202Z,95.80
2023-04-28T13:20:31.812Z,95.50
2023-04-28T13:23:00.034Z,95.00
2023-04-28T13:25:28.254Z,94.80
2023-04-28T13:27:56.668Z,94.50
2023-04-28T13:30:24.874Z,94.40
2023-04-28T13:32:54.148Z,94.30
2023-04-28T13:35:24.092Z,94.30
2023-04-28T13:38:01.563Z,94.00
2023-04-28T13:40:30.054Z,93.90
2023-04-28T13:42:58.358Z,93.90
2023-04-28T13:45:28.658Z,93.80
2023-04-28T13:47:56.945Z,93.60
2023-04-28T13:50:25.834Z,94.00
2023-04-28T13:52:55.425Z,93.60
2023-04-28T13:55:27.724Z,93.70
2023-04-28T13:57:56.169Z,93.70
2023-04-28T14:00:24.733Z,93.70
2023-04-28T14:02:53.113Z,93.80
2023-04-28T14:05:22.360Z,93.70
2023-04-28T14:07:50.682Z,93.70
2023-04-28T14:10:20.498Z,93.70
2023-04-28T14:12:49.065Z,93.70
2023-04-28T14:15:18.011Z,93.70
2023-04-28T14:17:46.518Z,93.70
2023-04-28T14:20:14.856Z,93.60
2023-04-28T14:22:43.090Z,93.60
2023-04-28T14:25:11.845Z,93.60
2023-04-28T14:27:41.804Z,93.60
2023-04-28T14:30:10.887Z,93.60
2023-04-28T14:32:40.085Z,93.60
2023-04-28T14:35:09.562Z,93.60
2023-04-28T14:37:38.006Z,93.60
2023-04-28T14:40:07.556Z,93.60
2023-04-28T14:42:37.326Z,93.60
2023-04-28T14:45:09.115Z,93.60
2023-04-28T14:47:38.657Z,93.60
2023-04-28T14:50:08.437Z,93.60
2023-04-28T14:52:37.022Z,93.70
2023-04-28T14:55:06.229Z,93.60
2023-04-28T14:57:35.461Z,93.70
2023-04-28T15:00:03.918Z,93.60
2023-04-28T15:02:37.316Z,93.70
2023-04-28T15:05:06.592Z,93.70
2023-04-28T15:07:35.008Z,93.60
2023-04-28T15:10:03.427Z,93.60
2023-04-28T15:12:32.136Z,93.60
2023-04-28T15:15:00.561Z,93.60
2023-04-28T15:17:29.440Z,93.60
2023-04-28T15:19:59.070Z,93.70
2023-04-28T15:22:27.456Z,93.70
2023-04-28T15:24:56.488Z,93.70
2023-04-28T15:27:25.087Z,93.70
2023-04-28T15:29:53.320Z,93.70
2023-04-28T15:32:21.618Z,93.70
2023-04-28T15:34:50.151Z,93.70
2023-04-28T15:37:43.091Z,93.70
2023-04-28T15:40:13.847Z,93.80
2023-04-28T15:42:45.034Z,93.70
2023-04-28T15:45:13.619Z,93.70
2023-04-28T15:47:42.718Z,93.60
2023-04-28T15:50:12.355Z,93.70
2023-04-28T15:52:46.090Z,93.60
2023-04-28T15:55:15.146Z,94.00
2023-04-28T15:57:44.501Z,93.60
2023-04-28T16:00:16.308Z,93.90
2023-04-28T16:02:46.694Z,93.60
2023-04-28T16:05:15.503Z,93.60
2023-04-28T16:07:45.442Z,93.60
2023-04-28T16:10:15.159Z,93.60
2023-04-28T16:12:44.342Z,93.60
2023-04-28T16:15:13.937Z,93.50
2023-04-28T16:17:44.189Z,93.60
2023-04-28T16:20:13.220Z,93.60
2023-04-28T16:22:42.479Z,93.60
2023-04-28T16:25:12.975Z,93.60
2023-04-28T16:27:42.287Z,93.60
2023-04-28T16:30:11.260Z,93.50
2023-04-28T16:32:40.819Z,93.50
2023-04-28T16:35:15.130Z,93.50
2023-04-28T16:37:44.451Z,93.50
2023-04-28T16:40:15.238Z,93.60
2023-04-28T16:42:45.198Z,93.50
2023-04-28T16:45:14.030Z,93.50
2023-04-28T16:47:44.036Z,93.50
2023-04-28T16:50:14.530Z,93.50
2023-04-28T16:52:43.093Z,93.50
2023-04-28T16:55:13.071Z,93.50
2023-04-28T16:57:41.472Z,93.50
2023-04-28T17:00:11.088Z,93.50
2023-04-28T17:02:39.592Z,93.50
2023-04-28T17:05:08.890Z,93.50
2023-04-28T17:07:37.186Z,93.50
2023-04-28T17:10:07.114Z,93.50
2023-04-28T17:12:36.788Z,93.50
2023-04-28T17:15:05.783Z,93.50
2023-04-28T17:17:34.621Z,93.50
2023-04-28T17:20:02.964Z,93.50
2023-04-28T17:22:33.155Z,93.50
2023-04-28T17:25:01.503Z,93.50
2023-04-28T17:27:29.987Z,93.50
2023-04-28T17:29:59.645Z,93.50
2023-04-28T17:32:30.925Z,93.50
2023-04-28T17:34:59.445Z,93.50
2023-04-28T17:37:27.730Z,93.50
2023-04-28T17:39:55.999Z,93.50
2023-04-28T17:42:24.822Z,93.50
2023-04-28T17:44:53.661Z,93.50
2023-04-28T17:47:23.351Z,93.50
2023-04-28T17:49:51.835Z,93.50
2023-04-28T17:52:20.671Z,93.40
2023-04-28T17:54:49.211Z,93.50
2023-04-28T17:57:17.869Z,93.50
2023-04-28T17:59:47.114Z,93.90
2023-04-28T18:02:15.491Z,93.50
2023-04-28T18:04:46.970Z,93.50
2023-04-28T18:07:15.220Z,93.60
2023-04-28T18:09:43.565Z,93.60
2023-04-28T18:12:11.866Z,93.60
2023-04-28T18:14:41.189Z,93.60
2023-04-28T18:17:09.962Z,93.60
2023-04-28T18:19:38.370Z,93.70
2023-04-28T18:22:08.002Z,93.60
2023-04-28T18:24:36.316Z,93.60
2023-04-28T18:27:05.115Z,93.60
2023-04-28T18:29:33.337Z,93.60
2023-04-28T18:32:01.763Z,93.50
2023-04-28T18:34:30.190Z,93.60
2023-04-28T18:36:58.449Z,93.50
2023-04-28T18:39:28.057Z,93.60
2023-04-28T18:41:56.272Z,93.60
2023-04-28T18:44:24.636Z,93.60
2023-04-28T18:46:53.042Z,93.60
2023-04-28T18:49:21.717Z,93.70
2023-04-28T18:51:50.099Z,93.70
2023-04-28T18:54:18.559Z,93.70
2023-04-28T18:56:48.496Z,93.80
2023-04-28T18:59:18.852Z,93.80
2023-04-28T19:01:48.989Z,93.70
2023-04-28T19:04:17.450Z,93.80
2023-04-28T19:06:45.992Z,93.70
2023-04-28T19:09:14.427Z,93.70
2023-04-28T19:11:42.667Z,93.80
2023-04-28T19:14:12.190Z,93.80
2023-04-28T19:16:40.495Z,93.70
2023-04-28T19:19:09.663Z,93.70
2023-04-28T19:21:44.520Z,94.10
2023-04-28T19:24:13.808Z,93.80
2023-04-28T19:26:42.115Z,93.70
2023-04-28T19:29:14.966Z,93.70
2023-04-28T19:31:43.225Z,93.70
2023-04-28T19:34:11.486Z,93.70
2023-04-28T19:36:40.112Z,93.70
2023-04-28T19:39:08.938Z,93.70
2023-04-28T19:41:40.085Z,93.70
2023-04-28T19:44:08.483Z,93.70
2023-04-28T19:46:38.210Z,93.70
2023-04-28T19:49:07.476Z,93.70
2023-04-28T19:51:35.734Z,93.70
2023-04-28T19:54:04.037Z,93.60
2023-04-28T19:56:33.650Z,93.60
2023-04-28T19:59:02.154Z,93.60
2023-04-28T20:01:30.972Z,93.70
2023-04-28T20:04:01.482Z,93.60
2023-04-28T20:06:29.912Z,93.60
2023-04-28T20:09:02.878Z,94.00
2023-04-28T20:11:31.282Z,93.70
2023-04-28T20:13:59.594Z,93.60
2023-04-28T20:16:28.003Z,93.60
2023-04-28T20:18:56.285Z,93.60
2023-04-28T20:21:28.173Z,93.70
2023-04-28T20:23:56.402Z,93.60
2023-04-28T20:26:24.814Z,93.70
2023-04-28T20:28:54.161Z,93.60
2023-04-28T20:31:23.508Z,93.70
2023-04-28T20:33:52.509Z,93.60
2023-04-28T20:36:20.820Z,93.70
2023-04-28T20:38:50.492Z,93.60
2023-04-28T20:41:18.826Z,93.60
2023-04-28T20:43:47.084Z,93.50
2023-04-28T20:46:15.816Z,93.60
2023-04-28T20:48:44.219Z,93.60
2023-04-28T20:51:12.433Z,93.60
2023-04-28T20:53:40.859Z,93.60
2023-04-28T20:56:10.530Z,93.60
2023-04-28T20:58:42.334Z,93.60
2023-04-28T21:01:10.907Z,93.60
2023-04-28T21:03:39.729Z,93.50
2023-04-28T21:06:08.169Z,93.60
2023-04-28T21:08:36.479Z,94.00
2023-04-28T21:11:04.837Z,93.60
2023-04-28T21:13:34.484Z,93.50
2023-04-28T21:16:02.785Z,93.50
2023-04-28T21:18:31.070Z,93.50
2023-04-28T21:20:59.384Z,93.50
2023-04-28T21:23:27.766Z,93.90
2023-04-28T21:25:56.425Z,93.60
2023-04-28T21:28:24.797Z,93.50
2023-04-28T21:30:54.434Z,93.50
2023-04-28T21:33:23.143Z,93.60
2023-04-28T21:35:51.731Z,93.50
2023-04-28T21:38:20.084Z,93.50
2023-04-28T21:40:48.769Z,93.50
2023-04-28T21:43:17.668Z,93.50
2023-04-28T21:45:45.918Z,93.60
2023-04-28T21:48:15.608Z,93.50
2023-04-28T21:50:43.831Z,93.50
2023-04-28T21:53:12.053Z,93.50
2023-04-28T21:55:41.502Z,93.50
2023-04-28T21:58:09.607Z,93.60
2023-04-28T22:00:41.010Z,93.50
2023-04-28T22:03:09.540Z,93.50
2023-04-28T22:05:41.304Z,93.50
2023-04-28T22:08:09.547Z,93.50
2023-04-28T22:10:37.953Z,93.60
2023-04-28T22:13:06.414Z,93.60
2023-04-28T22:15:34.898Z,93.90
2023-04-28T22:18:03.291Z,93.90
2023-04-28T22:20:32.034Z,93.60
2023-04-28T22:23:01.648Z,93.60
2023-04-28T22:25:30.059Z,93.60
2023-04-28T22:27:58.408Z,93.60
2023-04-28T22:30:26.822Z,93.60
2023-04-28T22:32:55.092Z,93.60
2023-04-28T22:35:23.741Z,93.60
2023-04-28T22:37:52.004Z,93.60
2023-04-28T22:40:21.764Z,93.60
2023-04-28T22:42:50.140Z,93.60
2023-04-28T22:45:18.415Z,93.50
2023-04-28T22:47:46.890Z,93.50
2023-04-28T22:50:15.243Z,93.50
2023-04-28T22:52:43.798Z,93.60
2023-04-28T22:55:13.134Z,93.50
2023-04-28T22:57:42.732Z,93.50
2023-04-28T23:00:12.144Z,93.60
2023-04-28T23:02:40.530Z,93.60
2023-04-28T23:05:09.410Z,93.50
2023-04-28T23:07:37.638Z,93.60
2023-04-28T23:10:07.099Z,93.50
2023-04-28T23:12:35.368Z,93.50
2023-04-28T23:15:06.101Z,93.50
2023-04-28T23:17:34.518Z,93.50
2023-04-28T23:20:03.054Z,93.60
2023-04-28T23:22:31.804Z,93.60
2023-04-28T23:25:00.186Z,93.60
2023-04-28T23:27:28.471Z,93.60
2023-04-28T23:29:56.816Z,93.60
2023-04-28T23:32:26.764Z,93.60
2023-04-28T23:34:55.064Z,93.60
2023-04-28T23:37:23.342Z,93.60
2023-04-28T23:39:51.840Z,93.60
2023-04-28T23:42:20.373Z,93.60
2023-04-28T23:44:48.900Z,93.60
2023-04-28T23:47:17.096Z,93.60
2023-04-28T23:49:47.070Z,93.60
2023-04-28T23:52:15.445Z,93.60
2023-04-28T23:54:43.894Z,93.60
2023-04-28T23:57:12.269Z,93.60
2023-04-28T23:59:40.556Z,93.60
